sensor_id;sensor_type;location;lat;lon;timestamp;P1;durP1;ratioP1;P2;durP2;ratioP2
57846;SDS011;43675;50.030;21.952;2023-06-14T00:01:02;39.10;;;34.60;;
57846;SDS011;43675;50.030;21.952;2023-06-14T00:03:43;37.20;;;33.50;;
57846;SDS011;43675;50.030;21.952;2023-06-14T00:06:09;36.00;;;32.50;;
57846;SDS011;43675;50.030;21.952;2023-06-14T00:08:36;33.90;;;30.70;;
57846;SDS011;43675;50.030;21.952;2023-06-14T00:11:02;35.00;;;31.20;;
57846;SDS011;43675;50.030;21.952;2023-06-14T00:13:29;34.00;;;30.60;;
57846;SDS011;43675;50.030;21.952;2023-06-14T00:15:55;34.50;;;30.80;;
57846;SDS011;43675;50.030;21.952;2023-06-14T00:18:22;33.30;;;29.70;;
57846;SDS011;43675;50.030;21.952;2023-06-14T00:20:49;32.90;;;29.50;;
57846;SDS011;43675;50.030;21.952;2023-06-14T00:23:16;30.70;;;27.50;;
57846;SDS011;43675;50.030;21.952;2023-06-14T00:25:43;31.30;;;28.10;;
57846;SDS011;43675;50.030;21.952;2023-06-14T00:28:10;31.00;;;28.10;;
57846;SDS011;43675;50.030;21.952;2023-06-14T00:30:36;34.40;;;26.70;;
57846;SDS011;43675;50.030;21.952;2023-06-14T00:33:03;29.10;;;26.30;;
57846;SDS011;43675;50.030;21.952;2023-06-14T00:35:29;31.90;;;28.10;;
57846;SDS011;43675;50.030;21.952;2023-06-14T00:37:56;30.30;;;27.20;;
57846;SDS011;43675;50.030;21.952;2023-06-14T00:40:23;28.70;;;26.00;;
57846;SDS011;43675;50.030;21.952;2023-06-14T00:42:49;29.40;;;26.20;;
57846;SDS011;43675;50.030;21.952;2023-06-14T00:45:16;28.80;;;25.80;;
57846;SDS011;43675;50.030;21.952;2023-06-14T00:47:42;28.20;;;25.50;;
57846;SDS011;43675;50.030;21.952;2023-06-14T00:50:11;28.60;;;25.60;;
57846;SDS011;43675;50.030;21.952;2023-06-14T00:52:38;29.70;;;26.40;;
57846;SDS011;43675;50.030;21.952;2023-06-14T00:55:05;29.40;;;26.30;;
57846;SDS011;43675;50.030;21.952;2023-06-14T00:57:32;31.50;;;26.40;;
57846;SDS011;43675;50.030;21.952;2023-06-14T00:59:59;29.20;;;26.30;;
57846;SDS011;43675;50.030;21.952;2023-06-14T01:02:25;29.30;;;26.50;;
57846;SDS011;43675;50.030;21.952;2023-06-14T01:04:52;29.10;;;26.20;;
57846;SDS011;43675;50.030;21.952;2023-06-14T01:12:53;29.90;;;26.30;;
57846;SDS011;43675;50.030;21.952;2023-06-14T01:15:33;30.00;;;27.20;;
57846;SDS011;43675;50.030;21.952;2023-06-14T01:18:03;30.80;;;27.60;;
57846;SDS011;43675;50.030;21.952;2023-06-14T01:20:31;29.50;;;26.40;;
57846;SDS011;43675;50.030;21.952;2023-06-14T01:22:59;29.80;;;26.70;;
57846;SDS011;43675;50.030;21.952;2023-06-14T01:25:26;31.10;;;27.50;;
57846;SDS011;43675;50.030;21.952;2023-06-14T01:27:55;29.90;;;26.70;;
57846;SDS011;43675;50.030;21.952;2023-06-14T01:30:26;32.00;;;28.80;;
57846;SDS011;43675;50.030;21.952;2023-06-14T01:32:54;31.00;;;27.90;;
57846;SDS011;43675;50.030;21.952;2023-06-14T01:35:22;32.30;;;28.10;;
57846;SDS011;43675;50.030;21.952;2023-06-14T01:37:49;30.90;;;27.80;;
57846;SDS011;43675;50.030;21.952;2023-06-14T01:40:16;31.80;;;28.40;;
57846;SDS011;43675;50.030;21.952;2023-06-14T01:42:44;31.00;;;27.20;;
57846;SDS011;43675;50.030;21.952;2023-06-14T01:45:14;30.50;;;27.30;;
57846;SDS011;43675;50.030;21.952;2023-06-14T01:47:41;30.50;;;27.30;;
57846;SDS011;43675;50.030;21.952;2023-06-14T01:50:09;32.70;;;28.30;;
57846;SDS011;43675;50.030;21.952;2023-06-14T01:52:36;30.30;;;26.30;;
57846;SDS011;43675;50.030;21.952;2023-06-14T01:55:04;31.20;;;27.90;;
57846;SDS011;43675;50.030;21.952;2023-06-14T01:57:32;31.20;;;28.10;;
57846;SDS011;43675;50.030;21.952;2023-06-14T01:59:58;32.30;;;28.70;;
57846;SDS011;43675;50.030;21.952;2023-06-14T02:02:24;31.80;;;28.50;;
57846;SDS011;43675;50.030;21.952;2023-06-14T02:04:51;29.30;;;26.50;;
57846;SDS011;43675;50.030;21.952;2023-06-14T02:07:18;30.50;;;27.20;;
57846;SDS011;43675;50.030;21.952;2023-06-14T02:09:44;30.70;;;27.60;;
57846;SDS011;43675;50.030;21.952;2023-06-14T02:12:11;31.90;;;28.00;;
57846;SDS011;43675;50.030;21.952;2023-06-14T02:14:37;32.80;;;27.70;;
57846;SDS011;43675;50.030;21.952;2023-06-14T02:17:04;31.60;;;28.40;;
57846;SDS011;43675;50.030;21.952;2023-06-14T02:19:31;30.70;;;27.70;;
57846;SDS011;43675;50.030;21.952;2023-06-14T02:21:57;31.40;;;28.20;;
57846;SDS011;43675;50.030;21.952;2023-06-14T02:24:24;35.50;;;29.30;;
57846;SDS011;43675;50.030;21.952;2023-06-14T02:26:50;30.90;;;27.50;;
57846;SDS011;43675;50.030;21.952;2023-06-14T02:29:17;30.20;;;27.30;;
57846;SDS011;43675;50.030;21.952;2023-06-14T02:31:43;30.90;;;27.60;;
57846;SDS011;43675;50.030;21.952;2023-06-14T02:34:10;31.40;;;27.50;;
57846;SDS011;43675;50.030;21.952;2023-06-14T02:36:36;30.10;;;27.10;;
57846;SDS011;43675;50.030;21.952;2023-06-14T02:39:03;30.20;;;27.10;;
57846;SDS011;43675;50.030;21.952;2023-06-14T02:41:29;31.10;;;28.00;;
57846;SDS011;43675;50.030;21.952;2023-06-14T02:43:56;31.60;;;28.10;;
57846;SDS011;43675;50.030;21.952;2023-06-14T02:46:22;31.40;;;28.20;;
57846;SDS011;43675;50.030;21.952;2023-06-14T02:48:49;30.10;;;26.90;;
57846;SDS011;43675;50.030;21.952;2023-06-14T02:51:15;29.40;;;26.50;;
57846;SDS011;43675;50.030;21.952;2023-06-14T02:53:42;31.60;;;27.40;;
57846;SDS011;43675;50.030;21.952;2023-06-14T02:56:09;31.60;;;27.90;;
57846;SDS011;43675;50.030;21.952;2023-06-14T02:58:36;31.30;;;27.10;;
57846;SDS011;43675;50.030;21.952;2023-06-14T03:01:04;29.50;;;26.40;;
57846;SDS011;43675;50.030;21.952;2023-06-14T03:03:31;30.40;;;26.90;;
57846;SDS011;43675;50.030;21.952;2023-06-14T03:05:58;29.50;;;26.30;;
57846;SDS011;43675;50.030;21.952;2023-06-14T03:08:24;29.00;;;26.00;;
57846;SDS011;43675;50.030;21.952;2023-06-14T03:10:51;29.90;;;26.20;;
57846;SDS011;43675;50.030;21.952;2023-06-14T03:13:17;29.00;;;25.90;;
57846;SDS011;43675;50.030;21.952;2023-06-14T03:15:44;28.90;;;26.00;;
57846;SDS011;43675;50.030;21.952;2023-06-14T03:18:10;30.40;;;26.30;;
57846;SDS011;43675;50.030;21.952;2023-06-14T03:20:37;28.30;;;25.30;;
57846;SDS011;43675;50.030;21.952;2023-06-14T03:23:04;27.80;;;25.10;;
57846;SDS011;43675;50.030;21.952;2023-06-14T03:25:31;28.20;;;25.30;;
57846;SDS011;43675;50.030;21.952;2023-06-14T03:27:57;28.20;;;24.90;;
57846;SDS011;43675;50.030;21.952;2023-06-14T03:30:24;28.90;;;24.70;;
57846;SDS011;43675;50.030;21.952;2023-06-14T03:32:51;27.60;;;24.90;;
57846;SDS011;43675;50.030;21.952;2023-06-14T03:35:17;27.00;;;24.20;;
57846;SDS011;43675;50.030;21.952;2023-06-14T03:37:44;27.20;;;24.40;;
57846;SDS011;43675;50.030;21.952;2023-06-14T03:40:17;27.40;;;24.60;;
57846;SDS011;43675;50.030;21.952;2023-06-14T03:42:45;27.90;;;23.70;;
57846;SDS011;43675;50.030;21.952;2023-06-14T03:45:11;25.70;;;23.10;;
57846;SDS011;43675;50.030;21.952;2023-06-14T03:47:38;25.50;;;22.90;;
57846;SDS011;43675;50.030;21.952;2023-06-14T03:50:04;25.40;;;23.20;;
57846;SDS011;43675;50.030;21.952;2023-06-14T03:52:31;25.90;;;23.50;;
57846;SDS011;43675;50.030;21.952;2023-06-14T03:54:58;26.10;;;23.60;;
57846;SDS011;43675;50.030;21.952;2023-06-14T03:57:25;25.60;;;23.30;;
57846;SDS011;43675;50.030;21.952;2023-06-14T03:59:52;25.30;;;23.10;;
57846;SDS011;43675;50.030;21.952;2023-06-14T04:02:18;25.60;;;22.80;;
57846;SDS011;43675;50.030;21.952;2023-06-14T04:04:45;25.70;;;23.10;;
57846;SDS011;43675;50.030;21.952;2023-06-14T04:07:12;25.90;;;23.40;;
57846;SDS011;43675;50.030;21.952;2023-06-14T04:09:39;25.60;;;23.00;;
57846;SDS011;43675;50.030;21.952;2023-06-14T04:12:06;25.40;;;22.90;;
57846;SDS011;43675;50.030;21.952;2023-06-14T04:14:34;25.40;;;22.90;;
57846;SDS011;43675;50.030;21.952;2023-06-14T04:17:01;25.70;;;23.30;;
57846;SDS011;43675;50.030;21.952;2023-06-14T04:19:27;26.10;;;23.40;;
57846;SDS011;43675;50.030;21.952;2023-06-14T04:21:54;25.30;;;22.90;;
57846;SDS011;43675;50.030;21.952;2023-06-14T04:24:20;25.00;;;22.60;;
57846;SDS011;43675;50.030;21.952;2023-06-14T04:26:48;24.80;;;22.30;;
57846;SDS011;43675;50.030;21.952;2023-06-14T04:29:15;26.00;;;23.50;;
57846;SDS011;43675;50.030;21.952;2023-06-14T04:31:42;25.80;;;23.20;;
57846;SDS011;43675;50.030;21.952;2023-06-14T04:34:09;24.90;;;22.70;;
57846;SDS011;43675;50.030;21.952;2023-06-14T04:36:36;24.10;;;21.60;;
57846;SDS011;43675;50.030;21.952;2023-06-14T04:39:03;25.90;;;23.40;;
57846;SDS011;43675;50.030;21.952;2023-06-14T04:41:30;24.40;;;21.90;;
57846;SDS011;43675;50.030;21.952;2023-06-14T04:43:57;25.20;;;22.80;;
57846;SDS011;43675;50.030;21.952;2023-06-14T04:46:25;25.60;;;23.00;;
57846;SDS011;43675;50.030;21.952;2023-06-14T04:48:51;26.40;;;23.60;;
57846;SDS011;43675;50.030;21.952;2023-06-14T04:51:17;27.40;;;23.80;;
57846;SDS011;43675;50.030;21.952;2023-06-14T04:53:44;26.00;;;23.40;;
57846;SDS011;43675;50.030;21.952;2023-06-14T04:56:10;25.90;;;23.40;;
57846;SDS011;43675;50.030;21.952;2023-06-14T04:58:37;26.70;;;24.00;;
57846;SDS011;43675;50.030;21.952;2023-06-14T05:01:03;30.90;;;23.80;;
57846;SDS011;43675;50.030;21.952;2023-06-14T05:03:30;26.60;;;23.80;;
57846;SDS011;43675;50.030;21.952;2023-06-14T05:05:56;27.10;;;24.40;;
57846;SDS011;43675;50.030;21.952;2023-06-14T05:08:23;27.30;;;24.60;;
57846;SDS011;43675;50.030;21.952;2023-06-14T05:10:50;27.00;;;24.10;;
57846;SDS011;43675;50.030;21.952;2023-06-14T05:13:16;27.80;;;25.00;;
57846;SDS011;43675;50.030;21.952;2023-06-14T05:15:43;27.60;;;25.10;;
57846;SDS011;43675;50.030;21.952;2023-06-14T05:18:10;27.10;;;24.30;;
57846;SDS011;43675;50.030;21.952;2023-06-14T05:20:37;28.00;;;24.50;;
57846;SDS011;43675;50.030;21.952;2023-06-14T05:23:03;28.40;;;25.50;;
57846;SDS011;43675;50.030;21.952;2023-06-14T05:25:30;27.20;;;24.50;;
57846;SDS011;43675;50.030;21.952;2023-06-14T05:27:56;28.30;;;25.30;;
57846;SDS011;43675;50.030;21.952;2023-06-14T05:30:23;27.20;;;24.60;;
57846;SDS011;43675;50.030;21.952;2023-06-14T05:32:49;28.70;;;25.10;;
57846;SDS011;43675;50.030;21.952;2023-06-14T05:35:16;26.50;;;23.90;;
57846;SDS011;43675;50.030;21.952;2023-06-14T05:37:42;31.10;;;24.90;;
57846;SDS011;43675;50.030;21.952;2023-06-14T05:40:09;27.20;;;24.50;;
57846;SDS011;43675;50.030;21.952;2023-06-14T05:42:36;29.30;;;26.30;;
57846;SDS011;43675;50.030;21.952;2023-06-14T05:45:03;29.60;;;26.50;;
57846;SDS011;43675;50.030;21.952;2023-06-14T05:47:29;29.60;;;25.50;;
57846;SDS011;43675;50.030;21.952;2023-06-14T05:49:56;30.60;;;26.20;;
57846;SDS011;43675;50.030;21.952;2023-06-14T05:52:23;28.80;;;26.00;;
57846;SDS011;43675;50.030;21.952;2023-06-14T05:54:49;29.30;;;26.40;;
57846;SDS011;43675;50.030;21.952;2023-06-14T05:57:16;29.10;;;26.20;;
57846;SDS011;43675;50.030;21.952;2023-06-14T05:59:42;28.10;;;25.20;;
57846;SDS011;43675;50.030;21.952;2023-06-14T06:02:09;27.50;;;24.80;;
57846;SDS011;43675;50.030;21.952;2023-06-14T06:04:35;27.80;;;25.10;;
57846;SDS011;43675;50.030;21.952;2023-06-14T06:07:02;28.10;;;25.40;;
57846;SDS011;43675;50.030;21.952;2023-06-14T06:09:29;27.30;;;24.70;;
57846;SDS011;43675;50.030;21.952;2023-06-14T06:11:56;27.70;;;24.90;;
57846;SDS011;43675;50.030;21.952;2023-06-14T06:14:22;27.90;;;25.30;;
57846;SDS011;43675;50.030;21.952;2023-06-14T06:16:49;28.50;;;25.60;;
57846;SDS011;43675;50.030;21.952;2023-06-14T06:19:15;28.80;;;26.10;;
57846;SDS011;43675;50.030;21.952;2023-06-14T06:21:42;27.30;;;24.70;;
57846;SDS011;43675;50.030;21.952;2023-06-14T06:24:08;27.60;;;25.10;;
57846;SDS011;43675;50.030;21.952;2023-06-14T06:26:35;29.00;;;26.20;;
57846;SDS011;43675;50.030;21.952;2023-06-14T06:29:02;28.70;;;25.90;;
57846;SDS011;43675;50.030;21.952;2023-06-14T06:31:28;28.20;;;25.40;;
57846;SDS011;43675;50.030;21.952;2023-06-14T06:33:55;27.70;;;25.10;;
57846;SDS011;43675;50.030;21.952;2023-06-14T06:36:21;28.20;;;25.50;;
57846;SDS011;43675;50.030;21.952;2023-06-14T06:38:48;28.70;;;25.20;;
57846;SDS011;43675;50.030;21.952;2023-06-14T06:41:15;28.40;;;25.40;;
57846;SDS011;43675;50.030;21.952;2023-06-14T06:43:41;28.30;;;25.70;;
57846;SDS011;43675;50.030;21.952;2023-06-14T06:46:08;29.10;;;26.30;;
57846;SDS011;43675;50.030;21.952;2023-06-14T06:48:34;28.90;;;26.00;;
57846;SDS011;43675;50.030;21.952;2023-06-14T06:51:01;29.90;;;26.90;;
57846;SDS011;43675;50.030;21.952;2023-06-14T06:53:27;29.10;;;26.40;;
57846;SDS011;43675;50.030;21.952;2023-06-14T06:55:54;29.00;;;26.20;;
57846;SDS011;43675;50.030;21.952;2023-06-14T06:58:20;28.90;;;26.10;;
57846;SDS011;43675;50.030;21.952;2023-06-14T07:00:47;28.80;;;26.10;;
57846;SDS011;43675;50.030;21.952;2023-06-14T07:03:13;28.50;;;25.70;;
57846;SDS011;43675;50.030;21.952;2023-06-14T07:05:40;28.80;;;26.10;;
57846;SDS011;43675;50.030;21.952;2023-06-14T07:08:07;28.50;;;25.50;;
57846;SDS011;43675;50.030;21.952;2023-06-14T07:10:33;29.30;;;26.30;;
57846;SDS011;43675;50.030;21.952;2023-06-14T07:13:00;28.50;;;25.60;;
57846;SDS011;43675;50.030;21.952;2023-06-14T07:15:26;27.80;;;25.10;;
57846;SDS011;43675;50.030;21.952;2023-06-14T07:17:53;29.00;;;26.10;;
57846;SDS011;43675;50.030;21.952;2023-06-14T07:20:19;28.40;;;25.70;;
57846;SDS011;43675;50.030;21.952;2023-06-14T07:22:46;27.90;;;25.20;;
57846;SDS011;43675;50.030;21.952;2023-06-14T07:25:12;27.00;;;24.20;;
57846;SDS011;43675;50.030;21.952;2023-06-14T07:27:40;27.90;;;25.10;;
57846;SDS011;43675;50.030;21.952;2023-06-14T07:30:08;26.80;;;24.20;;
57846;SDS011;43675;50.030;21.952;2023-06-14T07:32:36;25.80;;;23.40;;
57846;SDS011;43675;50.030;21.952;2023-06-14T07:35:02;26.90;;;24.30;;
57846;SDS011;43675;50.030;21.952;2023-06-14T07:37:29;25.30;;;22.90;;
57846;SDS011;43675;50.030;21.952;2023-06-14T07:39:56;26.10;;;23.40;;
57846;SDS011;43675;50.030;21.952;2023-06-14T07:42:22;24.20;;;22.10;;
57846;SDS011;43675;50.030;21.952;2023-06-14T07:44:49;25.00;;;22.50;;
57846;SDS011;43675;50.030;21.952;2023-06-14T07:47:15;27.70;;;22.60;;
57846;SDS011;43675;50.030;21.952;2023-06-14T07:49:42;23.90;;;21.60;;
57846;SDS011;43675;50.030;21.952;2023-06-14T07:52:08;23.60;;;21.50;;
57846;SDS011;43675;50.030;21.952;2023-06-14T07:54:35;24.40;;;22.10;;
57846;SDS011;43675;50.030;21.952;2023-06-14T07:57:02;23.70;;;21.50;;
57846;SDS011;43675;50.030;21.952;2023-06-14T07:59:29;23.70;;;21.40;;
57846;SDS011;43675;50.030;21.952;2023-06-14T08:01:55;23.70;;;21.70;;
57846;SDS011;43675;50.030;21.952;2023-06-14T08:04:22;23.50;;;21.30;;
57846;SDS011;43675;50.030;21.952;2023-06-14T08:06:48;25.00;;;21.50;;
57846;SDS011;43675;50.030;21.952;2023-06-14T08:09:15;23.80;;;21.60;;
57846;SDS011;43675;50.030;21.952;2023-06-14T08:11:41;24.50;;;22.00;;
57846;SDS011;43675;50.030;21.952;2023-06-14T08:14:08;22.90;;;20.80;;
57846;SDS011;43675;50.030;21.952;2023-06-14T08:16:35;24.20;;;22.00;;
57846;SDS011;43675;50.030;21.952;2023-06-14T08:19:01;24.30;;;21.90;;
57846;SDS011;43675;50.030;21.952;2023-06-14T08:21:28;23.80;;;21.40;;
57846;SDS011;43675;50.030;21.952;2023-06-14T08:23:55;24.60;;;22.30;;
57846;SDS011;43675;50.030;21.952;2023-06-14T08:26:21;23.30;;;21.20;;
57846;SDS011;43675;50.030;21.952;2023-06-14T08:28:48;24.30;;;22.20;;
57846;SDS011;43675;50.030;21.952;2023-06-14T08:31:15;23.80;;;21.50;;
57846;SDS011;43675;50.030;21.952;2023-06-14T08:33:41;24.50;;;21.80;;
57846;SDS011;43675;50.030;21.952;2023-06-14T08:36:08;24.40;;;22.00;;
57846;SDS011;43675;50.030;21.952;2023-06-14T08:38:34;24.70;;;22.20;;
57846;SDS011;43675;50.030;21.952;2023-06-14T08:41:01;24.50;;;22.20;;
57846;SDS011;43675;50.030;21.952;2023-06-14T08:43:30;24.40;;;21.90;;
57846;SDS011;43675;50.030;21.952;2023-06-14T08:45:58;24.90;;;22.60;;
57846;SDS011;43675;50.030;21.952;2023-06-14T08:48:29;24.20;;;22.00;;
57846;SDS011;43675;50.030;21.952;2023-06-14T08:50:56;24.20;;;22.00;;
57846;SDS011;43675;50.030;21.952;2023-06-14T08:53:26;24.50;;;22.10;;
57846;SDS011;43675;50.030;21.952;2023-06-14T08:55:52;24.60;;;22.10;;
57846;SDS011;43675;50.030;21.952;2023-06-14T08:58:19;24.40;;;22.00;;
57846;SDS011;43675;50.030;21.952;2023-06-14T09:00:46;23.50;;;21.30;;
57846;SDS011;43675;50.030;21.952;2023-06-14T09:03:13;24.40;;;22.20;;
57846;SDS011;43675;50.030;21.952;2023-06-14T09:05:39;25.80;;;23.10;;
57846;SDS011;43675;50.030;21.952;2023-06-14T09:08:06;24.20;;;22.10;;
57846;SDS011;43675;50.030;21.952;2023-06-14T09:10:32;24.20;;;22.10;;
57846;SDS011;43675;50.030;21.952;2023-06-14T09:13:00;25.20;;;22.70;;
57846;SDS011;43675;50.030;21.952;2023-06-14T09:15:28;25.40;;;22.70;;
57846;SDS011;43675;50.030;21.952;2023-06-14T09:17:57;24.40;;;22.20;;
57846;SDS011;43675;50.030;21.952;2023-06-14T09:20:24;24.30;;;22.00;;
57846;SDS011;43675;50.030;21.952;2023-06-14T09:22:51;24.30;;;22.10;;
57846;SDS011;43675;50.030;21.952;2023-06-14T09:25:18;23.80;;;21.50;;
57846;SDS011;43675;50.030;21.952;2023-06-14T09:27:45;24.10;;;21.80;;
57846;SDS011;43675;50.030;21.952;2023-06-14T09:30:13;22.90;;;20.90;;
57846;SDS011;43675;50.030;21.952;2023-06-14T09:32:39;23.00;;;21.00;;
57846;SDS011;43675;50.030;21.952;2023-06-14T09:35:06;22.90;;;20.60;;
57846;SDS011;43675;50.030;21.952;2023-06-14T09:37:34;22.30;;;20.30;;
57846;SDS011;43675;50.030;21.952;2023-06-14T09:40:03;22.80;;;20.60;;
57846;SDS011;43675;50.030;21.952;2023-06-14T09:42:31;22.10;;;20.10;;
57846;SDS011;43675;50.030;21.952;2023-06-14T09:44:57;22.80;;;20.50;;
57846;SDS011;43675;50.030;21.952;2023-06-14T09:47:24;21.90;;;19.90;;
57846;SDS011;43675;50.030;21.952;2023-06-14T09:49:51;24.40;;;22.10;;
57846;SDS011;43675;50.030;21.952;2023-06-14T09:52:18;23.90;;;21.70;;
57846;SDS011;43675;50.030;21.952;2023-06-14T09:54:47;23.20;;;21.30;;
57846;SDS011;43675;50.030;21.952;2023-06-14T09:57:15;23.50;;;21.60;;
57846;SDS011;43675;50.030;21.952;2023-06-14T09:59:43;24.00;;;21.90;;
57846;SDS011;43675;50.030;21.952;2023-06-14T10:02:14;23.60;;;21.60;;
57846;SDS011;43675;50.030;21.952;2023-06-14T10:04:50;23.10;;;21.30;;
57846;SDS011;43675;50.030;21.952;2023-06-14T10:07:27;24.60;;;22.40;;
57846;SDS011;43675;50.030;21.952;2023-06-14T10:09:56;25.10;;;22.70;;
57846;SDS011;43675;50.030;21.952;2023-06-14T10:12:23;24.20;;;22.20;;
57846;SDS011;43675;50.030;21.952;2023-06-14T10:14:51;24.70;;;22.60;;
57846;SDS011;43675;50.030;21.952;2023-06-14T10:17:37;24.20;;;22.20;;
57846;SDS011;43675;50.030;21.952;2023-06-14T10:23:07;21.90;;;19.90;;
57846;SDS011;43675;50.030;21.952;2023-06-14T10:25:39;23.00;;;20.80;;
57846;SDS011;43675;50.030;21.952;2023-06-14T10:28:19;20.70;;;18.80;;
57846;SDS011;43675;50.030;21.952;2023-06-14T10:33:32;21.50;;;19.40;;
57846;SDS011;43675;50.030;21.952;2023-06-14T10:39:04;22.70;;;20.40;;
57846;SDS011;43675;50.030;21.952;2023-06-14T10:46:57;23.00;;;20.90;;
57846;SDS011;43675;50.030;21.952;2023-06-14T10:49:39;22.20;;;20.10;;
57846;SDS011;43675;50.030;21.952;2023-06-14T10:52:13;22.90;;;20.70;;
57846;SDS011;43675;50.030;21.952;2023-06-14T10:57:39;22.70;;;20.50;;
57846;SDS011;43675;50.030;21.952;2023-06-14T11:00:07;23.20;;;21.20;;
57846;SDS011;43675;50.030;21.952;2023-06-14T11:05:20;22.30;;;20.40;;
57846;SDS011;43675;50.030;21.952;2023-06-14T11:10:40;22.90;;;20.70;;
57846;SDS011;43675;50.030;21.952;2023-06-14T11:13:07;22.50;;;20.40;;
57846;SDS011;43675;50.030;21.952;2023-06-14T11:15:35;22.60;;;20.50;;
57846;SDS011;43675;50.030;21.952;2023-06-14T11:18:06;21.90;;;20.10;;
57846;SDS011;43675;50.030;21.952;2023-06-14T11:20:34;21.90;;;20.10;;
57846;SDS011;43675;50.030;21.952;2023-06-14T11:23:02;21.80;;;19.90;;
57846;SDS011;43675;50.030;21.952;2023-06-14T11:25:30;21.40;;;19.60;;
57846;SDS011;43675;50.030;21.952;2023-06-14T11:27:57;21.80;;;19.90;;
57846;SDS011;43675;50.030;21.952;2023-06-14T11:30:24;22.80;;;20.80;;
57846;SDS011;43675;50.030;21.952;2023-06-14T11:32:52;22.50;;;20.50;;
57846;SDS011;43675;50.030;21.952;2023-06-14T11:35:21;22.80;;;20.80;;
57846;SDS011;43675;50.030;21.952;2023-06-14T11:37:49;21.70;;;19.80;;
57846;SDS011;43675;50.030;21.952;2023-06-14T11:40:19;22.00;;;20.10;;
57846;SDS011;43675;50.030;21.952;2023-06-14T11:42:45;21.10;;;19.30;;
57846;SDS011;43675;50.030;21.952;2023-06-14T11:45:12;22.20;;;20.30;;
57846;SDS011;43675;50.030;21.952;2023-06-14T11:47:39;22.50;;;20.50;;
57846;SDS011;43675;50.030;21.952;2023-06-14T11:50:06;22.60;;;20.70;;
57846;SDS011;43675;50.030;21.952;2023-06-14T11:52:34;22.90;;;20.60;;
57846;SDS011;43675;50.030;21.952;2023-06-14T11:55:03;22.90;;;21.00;;
57846;SDS011;43675;50.030;21.952;2023-06-14T11:57:30;22.80;;;20.80;;
57846;SDS011;43675;50.030;21.952;2023-06-14T12:00:00;22.70;;;20.40;;
57846;SDS011;43675;50.030;21.952;2023-06-14T12:02:31;24.00;;;21.60;;
57846;SDS011;43675;50.030;21.952;2023-06-14T12:05:03;22.70;;;20.50;;
57846;SDS011;43675;50.030;21.952;2023-06-14T12:07:31;22.30;;;20.20;;
57846;SDS011;43675;50.030;21.952;2023-06-14T12:12:24;21.80;;;19.80;;
57846;SDS011;43675;50.030;21.952;2023-06-14T12:14:52;23.20;;;21.00;;
57846;SDS011;43675;50.030;21.952;2023-06-14T12:17:19;22.50;;;20.50;;
57846;SDS011;43675;50.030;21.952;2023-06-14T12:19:46;22.40;;;20.50;;
57846;SDS011;43675;50.030;21.952;2023-06-14T12:22:13;22.10;;;20.20;;
57846;SDS011;43675;50.030;21.952;2023-06-14T12:24:42;22.50;;;20.50;;
57846;SDS011;43675;50.030;21.952;2023-06-14T12:27:09;23.20;;;21.00;;
57846;SDS011;43675;50.030;21.952;2023-06-14T12:29:36;23.20;;;21.20;;
57846;SDS011;43675;50.030;21.952;2023-06-14T12:32:04;23.20;;;21.10;;
57846;SDS011;43675;50.030;21.952;2023-06-14T12:34:31;23.00;;;20.70;;
57846;SDS011;43675;50.030;21.952;2023-06-14T12:36:57;23.00;;;21.00;;
57846;SDS011;43675;50.030;21.952;2023-06-14T12:39:24;22.30;;;20.60;;
57846;SDS011;43675;50.030;21.952;2023-06-14T12:41:50;22.20;;;20.20;;
57846;SDS011;43675;50.030;21.952;2023-06-14T12:44:17;22.00;;;20.30;;
57846;SDS011;43675;50.030;21.952;2023-06-14T12:46:43;22.40;;;20.40;;
57846;SDS011;43675;50.030;21.952;2023-06-14T12:49:11;22.20;;;20.30;;
57846;SDS011;43675;50.030;21.952;2023-06-14T12:51:40;23.20;;;21.30;;
57846;SDS011;43675;50.030;21.952;2023-06-14T12:54:07;23.80;;;21.50;;
57846;SDS011;43675;50.030;21.952;2023-06-14T12:56:33;22.20;;;20.30;;
57846;SDS011;43675;50.030;21.952;2023-06-14T12:59:00;22.30;;;20.40;;
57846;SDS011;43675;50.030;21.952;2023-06-14T13:01:26;22.40;;;20.40;;
57846;SDS011;43675;50.030;21.952;2023-06-14T13:03:53;22.40;;;20.20;;
57846;SDS011;43675;50.030;21.952;2023-06-14T13:06:20;23.90;;;21.80;;
57846;SDS011;43675;50.030;21.952;2023-06-14T13:08:48;24.30;;;22.40;;
57846;SDS011;43675;50.030;21.952;2023-06-14T13:11:15;24.10;;;22.10;;
57846;SDS011;43675;50.030;21.952;2023-06-14T13:13:41;24.40;;;22.20;;
57846;SDS011;43675;50.030;21.952;2023-06-14T13:16:08;24.00;;;22.00;;
57846;SDS011;43675;50.030;21.952;2023-06-14T13:18:34;24.30;;;22.30;;
57846;SDS011;43675;50.030;21.952;2023-06-14T13:21:01;22.50;;;20.50;;
57846;SDS011;43675;50.030;21.952;2023-06-14T13:23:27;23.10;;;20.90;;
57846;SDS011;43675;50.030;21.952;2023-06-14T13:25:54;22.60;;;20.70;;
57846;SDS011;43675;50.030;21.952;2023-06-14T13:28:20;22.00;;;20.10;;
57846;SDS011;43675;50.030;21.952;2023-06-14T13:30:47;22.00;;;20.00;;
57846;SDS011;43675;50.030;21.952;2023-06-14T13:33:13;22.20;;;20.00;;
57846;SDS011;43675;50.030;21.952;2023-06-14T13:35:40;22.80;;;20.60;;
57846;SDS011;43675;50.030;21.952;2023-06-14T13:38:08;22.40;;;20.50;;
57846;SDS011;43675;50.030;21.952;2023-06-14T13:40:35;22.80;;;20.70;;
57846;SDS011;43675;50.030;21.952;2023-06-14T13:43:02;22.70;;;20.90;;
57846;SDS011;43675;50.030;21.952;2023-06-14T13:45:28;22.20;;;20.30;;
57846;SDS011;43675;50.030;21.952;2023-06-14T13:47:55;22.70;;;20.90;;
57846;SDS011;43675;50.030;21.952;2023-06-14T13:50:21;21.50;;;19.60;;
57846;SDS011;43675;50.030;21.952;2023-06-14T13:52:48;21.30;;;19.50;;
57846;SDS011;43675;50.030;21.952;2023-06-14T13:55:14;21.80;;;19.90;;
57846;SDS011;43675;50.030;21.952;2023-06-14T13:57:41;22.20;;;20.10;;
57846;SDS011;43675;50.030;21.952;2023-06-14T14:00:08;22.60;;;20.90;;
57846;SDS011;43675;50.030;21.952;2023-06-14T14:02:35;22.90;;;21.10;;
57846;SDS011;43675;50.030;21.952;2023-06-14T14:05:01;21.90;;;20.20;;
57846;SDS011;43675;50.030;21.952;2023-06-14T14:07:28;20.60;;;18.90;;
57846;SDS011;43675;50.030;21.952;2023-06-14T14:09:55;21.20;;;19.40;;
57846;SDS011;43675;50.030;21.952;2023-06-14T14:12:21;21.80;;;20.10;;
57846;SDS011;43675;50.030;21.952;2023-06-14T14:14:48;20.70;;;19.20;;
57846;SDS011;43675;50.030;21.952;2023-06-14T14:17:14;22.20;;;20.00;;
57846;SDS011;43675;50.030;21.952;2023-06-14T14:19:41;21.90;;;20.10;;
57846;SDS011;43675;50.030;21.952;2023-06-14T14:22:07;21.30;;;19.40;;
57846;SDS011;43675;50.030;21.952;2023-06-14T14:24:34;22.10;;;20.10;;
57846;SDS011;43675;50.030;21.952;2023-06-14T14:27:01;21.30;;;19.40;;
57846;SDS011;43675;50.030;21.952;2023-06-14T14:29:28;21.00;;;19.00;;
57846;SDS011;43675;50.030;21.952;2023-06-14T14:31:55;21.20;;;19.30;;
57846;SDS011;43675;50.030;21.952;2023-06-14T14:34:22;21.30;;;19.30;;
57846;SDS011;43675;50.030;21.952;2023-06-14T14:36:50;22.00;;;20.00;;
57846;SDS011;43675;50.030;21.952;2023-06-14T14:39:17;23.40;;;21.00;;